Time;durP1;ratioP1;P1;durP2;ratioP2;P2;SDS_P1;SDS_P2;PMS_P1;PMS_P2;Temp;Humidity;BMP_temperature;BMP_pressure;BME280_temperature;BME280_humidity;BME280_pressure;Samples;Min_cycle;Max_cycle;Signal;HPM_P1;HPM_P2
2021/10/22 00:01:01;;;;;;;29.30;23.13;;;;;;;11.12;96.40;100655.66;5030939;28;20033;-66
2021/10/22 00:03:29;;;;;;;27.52;23.10;;;;;;;11.23;96.39;100678.47;5030827;28;20509;-67
2021/10/22 00:05:54;;;;;;;28.75;22.98;;;;;;;11.15;96.37;100662.66;5031135;28;20408;-66
2021/10/22 00:08:20;;;;;;;29.30;23.30;;;;;;;11.19;96.42;100676.56;5030942;28;20033;-65
2021/10/22 00:10:45;;;;;;;26.15;22.98;;;;;;;11.21;96.11;100695.63;5031129;28;20124;-66
2021/10/22 00:13:12;;;;;;;29.42;23.65;;;;;;;11.25;95.80;100687.16;5030899;28;20104;-68
2021/10/22 00:15:37;;;;;;;28.42;21.90;;;;;;;10.83;94.91;100595.16;5030897;28;20045;-70
2021/10/22 00:18:03;;;;;;;28.73;22.90;;;;;;;10.91;95.77;100658.31;5028454;28;20072;-66
2021/10/22 00:20:28;;;;;;;29.13;22.48;;;;;;;11.03;95.97;100686.34;5031185;28;20026;-68
2021/10/22 00:22:54;;;;;;;24.42;21.50;;;;;;;10.91;95.54;100668.66;5030923;28;20033;-67
2021/10/22 00:25:20;;;;;;;25.92;22.48;;;;;;;10.87;96.99;100686.56;5029405;28;20025;-67
2021/10/22 00:27:46;;;;;;;27.65;21.60;;;;;;;10.33;96.69;100598.38;5031086;28;20083;-68
2021/10/22 00:30:12;;;;;;;26.15;22.27;;;;;;;10.80;96.96;100685.44;5030264;28;20025;-67
2021/10/22 00:32:38;;;;;;;28.15;23.17;;;;;;;10.83;96.87;100678.69;5030776;28;20392;-67
2021/10/22 00:35:04;;;;;;;26.83;22.55;;;;;;;10.83;96.82;100691.59;5030595;28;20075;-65
2021/10/22 00:37:30;;;;;;;28.63;23.38;;;;;;;10.75;97.17;100684.38;5029329;28;20029;-67
2021/10/22 00:39:55;;;;;;;30.67;23.75;;;;;;;10.72;97.54;100692.88;5030708;28;20036;-67
2021/10/22 00:42:22;;;;;;;27.30;23.55;;;;;;;10.66;97.76;100695.22;5034436;28;20057;-65
2021/10/22 00:44:50;;;;;;;28.60;24.92;;;;;;;10.63;97.87;100692.50;5034235;28;20468;-67
2021/10/22 00:47:16;;;;;;;28.52;25.10;;;;;;;10.37;98.21;100663.94;5034323;28;20116;-65
2021/10/22 00:49:42;;;;;;;30.65;25.00;;;;;;;10.51;98.59;100686.03;5034743;28;20117;-65
2021/10/22 00:52:09;;;;;;;27.38;24.35;;;;;;;10.41;98.65;100670.13;5034246;28;20041;-66
2021/10/22 00:54:35;;;;;;;33.20;26.02;;;;;;;10.52;98.58;100690.38;5034444;28;20454;-66
2021/10/22 00:57:01;;;;;;;31.15;24.85;;;;;;;10.50;98.59;100688.53;5034447;28;20084;-66
2021/10/22 00:59:27;;;;;;;32.58;26.58;;;;;;;10.06;98.30;100605.88;5034020;28;20021;-65
2021/10/22 01:01:52;;;;;;;30.40;25.02;;;;;;;10.46;98.57;100684.94;5034448;28;20407;-65
2021/10/22 01:04:18;;;;;;;30.60;25.50;;;;;;;10.39;98.88;100679.47;5034521;28;20029;-65
2021/10/22 01:06:43;;;;;;;30.15;25.88;;;;;;;10.49;98.64;100686.78;5034168;28;20022;-65
2021/10/22 01:09:10;;;;;;;29.60;24.63;;;;;;;10.57;97.57;100685.41;5034342;28;20057;-66
2021/10/22 01:11:36;;;;;;;29.67;25.35;;;;;;;10.63;97.04;100684.75;5033928;28;20017;-63
2021/10/22 01:14:05;;;;;;;31.17;26.05;;;;;;;10.65;96.25;100678.84;5033630;28;20107;-65
2021/10/22 01:16:32;;;;;;;30.75;26.00;;;;;;;10.65;96.09;100680.53;5034099;28;20034;-64
2021/10/22 01:18:57;;;;;;;29.27;24.20;;;;;;;10.54;94.57;100662.03;5033962;28;20120;-65
2021/10/22 01:21:23;;;;;;;32.28;25.48;;;;;;;10.68;95.31;100683.25;5034151;28;20444;-66
2021/10/22 01:23:49;;;;;;;30.50;23.73;;;;;;;10.68;95.54;100673.81;5033703;28;20044;-65
2021/10/22 01:26:17;;;;;;;27.73;23.30;;;;;;;10.72;94.44;100676.53;5033598;28;20108;-67
2021/10/22 01:28:42;;;;;;;27.10;22.77;;;;;;;10.80;93.44;100677.69;5032979;28;20468;-66
2021/10/22 01:31:08;;;;;;;27.35;23.88;;;;;;;10.74;93.56;100664.53;5033985;28;20112;-68
2021/10/22 01:33:33;;;;;;;30.05;24.63;;;;;;;10.91;93.57;100686.72;5033348;28;20033;-67
2021/10/22 01:35:59;;;;;;;30.92;25.65;;;;;;;10.84;94.03;100684.72;5033665;28;20037;-67
2021/10/22 01:38:25;;;;;;;28.88;24.85;;;;;;;10.80;94.19;100683.75;5033267;28;20021;-67
2021/10/22 01:40:55;;;;;;;29.45;23.50;;;;;;;10.79;93.33;100686.25;5033316;28;20036;-67
2021/10/22 01:43:23;;;;;;;26.80;23.48;;;;;;;10.77;93.51;100690.50;5033172;28;20063;-66
2021/10/22 01:45:49;;;;;;;31.02;24.58;;;;;;;10.60;94.24;100692.38;5033023;28;20064;-66
2021/10/22 01:48:15;;;;;;;27.75;23.20;;;;;;;10.44;92.57;100676.28;5033368;28;20033;-65
2021/10/22 01:50:41;;;;;;;31.58;24.90;;;;;;;10.44;93.35;100698.63;5033239;28;20048;-65
2021/10/22 01:53:07;;;;;;;29.25;24.10;;;;;;;10.41;93.48;100703.66;5032244;28;20095;-71
2021/10/22 01:55:33;;;;;;;29.08;23.95;;;;;;;10.27;92.61;100675.56;5033349;28;20056;-67
2021/10/22 01:58:00;;;;;;;32.45;25.05;;;;;;;10.27;94.73;100697.88;5032694;28;20030;-65
2021/10/22 02:00:25;;;;;;;30.75;24.38;;;;;;;10.12;95.07;100690.38;5033335;28;20404;-66
2021/10/22 02:02:51;;;;;;;30.70;26.73;;;;;;;10.10;96.43;100694.59;5033128;28;20033;-66
2021/10/22 02:05:16;;;;;;;33.35;27.15;;;;;;;10.11;96.71;100693.78;5033007;28;20033;-65
2021/10/22 02:07:41;;;;;;;34.90;27.45;;;;;;;10.24;97.20;100692.59;5017309;28;20041;-65
2021/10/22 02:10:08;;;;;;;33.45;27.95;;;;;;;10.16;96.63;100680.25;5013005;28;20026;-67
2021/10/22 02:12:34;;;;;;;32.75;27.77;;;;;;;9.77;96.78;100623.59;5012671;28;20060;-67
2021/10/22 02:14:59;;;;;;;31.10;27.20;;;;;;;10.08;97.20;100691.06;4999592;28;20061;-71
2021/10/22 02:17:25;;;;;;;31.83;28.40;;;;;;;9.55;97.43;100635.56;5013009;28;20041;-67
2021/10/22 02:19:50;;;;;;;33.15;28.65;;;;;;;10.06;97.27;100700.47;5012794;28;20029;-66
2021/10/22 02:22:16;;;;;;;31.15;26.85;;;;;;;10.07;97.44;100704.78;5013051;28;20022;-66
2021/10/22 02:24:42;;;;;;;33.20;27.65;;;;;;;10.06;97.02;100698.75;5012926;28;20037;-66
2021/10/22 02:27:07;;;;;;;32.55;27.95;;;;;;;9.86;96.63;100680.72;5012493;28;20095;-68
2021/10/22 02:29:33;;;;;;;31.88;27.58;;;;;;;9.88;97.68;100704.88;5009827;28;20534;-66
2021/10/22 02:31:58;;;;;;;34.38;28.38;;;;;;;9.84;97.42;100703.00;5010025;28;20025;-64
2021/10/22 02:34:24;;;;;;;38.35;29.50;;;;;;;9.61;97.50;100676.19;5012542;28;20030;-66
2021/10/22 02:36:50;;;;;;;33.72;28.65;;;;;;;9.88;97.25;100720.34;5012325;28;20060;-67
2021/10/22 02:39:16;;;;;;;31.08;27.65;;;;;;;9.84;96.57;100723.63;5012774;28;20061;-67
2021/10/22 02:41:41;;;;;;;30.08;26.83;;;;;;;9.69;96.28;100699.72;5012174;28;20065;-65
2021/10/22 02:44:08;;;;;;;36.75;28.70;;;;;;;9.86;96.56;100721.09;5011978;28;20080;-64
2021/10/22 02:46:33;;;;;;;32.47;27.48;;;;;;;8.89;96.71;100561.38;5012944;28;20049;-66
2021/10/22 02:48:59;;;;;;;32.42;28.92;;;;;;;9.90;96.48;100737.59;5012693;28;20026;-66
2021/10/22 02:51:24;;;;;;;32.67;27.92;;;;;;;9.73;96.53;100709.34;5012686;28;20034;-66
2021/10/22 02:53:50;;;;;;;33.78;27.77;;;;;;;9.82;96.59;100722.66;5027968;28;20034;-66
2021/10/22 02:56:15;;;;;;;33.03;28.50;;;;;;;9.88;96.38;100735.81;5012369;28;20033;-67
2021/10/22 02:58:41;;;;;;;44.88;30.33;;;;;;;9.81;96.72;100735.50;5012668;28;20030;-65
2021/10/22 03:01:06;;;;;;;34.22;30.48;;;;;;;9.60;97.44;100718.25;5011258;28;20025;-66
2021/10/22 03:03:32;;;;;;;37.67;31.45;;;;;;;9.72;97.88;100730.81;5012374;28;20041;-66
2021/10/22 03:05:57;;;;;;;36.20;30.20;;;;;;;9.71;97.97;100737.66;5012313;28;20084;-65
2021/10/22 03:08:23;;;;;;;35.80;31.13;;;;;;;9.74;98.10;100746.34;5012325;28;20026;-68
2021/10/22 03:10:48;;;;;;;35.22;31.50;;;;;;;9.77;97.97;100757.69;5010899;28;20032;-67
2021/10/22 03:13:14;;;;;;;37.90;31.85;;;;;;;9.77;97.74;100752.53;5012366;28;20460;-66
2021/10/22 03:15:39;;;;;;;38.15;32.20;;;;;;;9.65;98.17;100750.25;5012440;28;20050;-65
2021/10/22 03:18:04;;;;;;;42.25;32.78;;;;;;;9.64;98.35;100750.19;5012288;28;20084;-66
2021/10/22 03:20:31;;;;;;;36.30;30.85;;;;;;;9.62;98.37;100762.13;5010464;28;20061;-64
2021/10/22 03:22:56;;;;;;;36.42;30.25;;;;;;;9.57;97.86;100761.94;5009175;28;20116;-64
2021/10/22 03:25:22;;;;;;;39.45;30.77;;;;;;;9.57;97.55;100756.78;5009922;28;20117;-66
2021/10/22 03:27:48;;;;;;;39.28;31.85;;;;;;;9.48;98.08;100759.81;5011875;28;20053;-68
2021/10/22 03:30:14;;;;;;;34.95;31.23;;;;;;;9.43;97.62;100758.69;5011752;28;20030;-66
2021/10/22 03:32:40;;;;;;;37.38;31.25;;;;;;;9.51;96.96;100762.53;5010894;28;20038;-68
2021/10/22 03:35:06;;;;;;;38.78;30.73;;;;;;;9.57;96.84;100761.03;5012208;28;20377;-66
2021/10/22 03:37:32;;;;;;;33.92;29.73;;;;;;;9.15;96.37;100680.16;5011700;28;20075;-65
2021/10/22 03:39:58;;;;;;;35.42;30.60;;;;;;;9.70;96.38;100769.41;5011265;28;20022;-66
2021/10/22 03:42:24;;;;;;;32.72;29.10;;;;;;;9.69;95.81;100769.34;5011576;28;20473;-65
2021/10/22 03:44:50;;;;;;;36.30;29.75;;;;;;;9.65;96.10;100752.84;5011310;28;20036;-68
2021/10/22 03:47:15;;;;;;;38.13;32.45;;;;;;;9.73;95.71;100762.63;5011781;28;20069;-66
2021/10/22 03:49:42;;;;;;;35.30;30.20;;;;;;;9.66;94.93;100766.63;4994438;28;20026;-66
2021/10/22 03:52:07;;;;;;;38.17;32.50;;;;;;;9.74;95.55;100774.69;5011754;28;20412;-64
2021/10/22 03:54:33;;;;;;;40.08;31.17;;;;;;;9.75;95.59;100766.16;5010193;28;20033;-67
2021/10/22 03:56:58;;;;;;;34.85;30.67;;;;;;;9.76;95.45;100771.38;5011625;28;20040;-66
2021/10/22 03:59:24;;;;;;;35.88;31.50;;;;;;;9.72;95.59;100774.66;5011726;28;20030;-66
2021/10/22 04:01:50;;;;;;;34.38;30.50;;;;;;;9.65;95.62;100772.59;5011678;28;20399;-66
2021/10/22 04:04:17;;;;;;;36.45;31.45;;;;;;;8.55;96.11;100598.44;5026847;28;20057;-67
2021/10/22 04:06:42;;;;;;;38.47;32.20;;;;;;;9.45;96.61;100764.81;5011558;28;20025;-66
2021/10/22 04:09:09;;;;;;;41.38;31.58;;;;;;;9.48;96.73;100775.28;5025848;28;20034;-66
2021/10/22 04:11:35;;;;;;;34.97;30.58;;;;;;;8.91;96.25;100679.91;5011601;28;20053;-66
2021/10/22 04:14:01;;;;;;;37.60;31.23;;;;;;;9.45;96.41;100780.28;5011322;28;20034;-65
2021/10/22 04:16:27;;;;;;;35.78;30.10;;;;;;;9.44;96.41;100769.91;5014633;28;20092;-66
2021/10/22 04:18:53;;;;;;;36.58;29.60;;;;;;;9.06;95.92;100713.22;5015657;28;20072;-66
2021/10/22 04:21:18;;;;;;;37.75;29.85;;;;;;;9.35;95.74;100767.78;5015735;28;20057;-66
2021/10/22 04:23:45;;;;;;;38.70;29.02;;;;;;;9.46;96.16;100784.63;5015379;28;20038;-66
2021/10/22 04:26:11;;;;;;;32.10;27.65;;;;;;;9.47;94.87;100785.50;5015774;28;20033;-68
2021/10/22 04:28:37;;;;;;;35.58;27.52;;;;;;;9.42;94.40;100793.03;5015188;28;20570;-67
2021/10/22 04:31:02;;;;;;;31.33;27.27;;;;;;;9.43;94.50;100791.34;5015607;28;20057;-67
2021/10/22 04:33:28;;;;;;;34.95;28.10;;;;;;;9.47;94.48;100791.56;5015498;28;20105;-66
2021/10/22 04:35:53;;;;;;;32.88;28.58;;;;;;;9.47;93.84;100796.72;5015420;28;20424;-66
2021/10/22 04:40:45;;;;;;;33.55;27.98;;;;;;;9.48;94.19;100795.91;5015636;28;20105;-65
2021/10/22 04:43:15;;;;;;;33.10;27.25;;;;;;;9.29;94.44;100793.28;5015383;28;20080;-66
2021/10/22 04:45:42;;;;;;;32.67;29.17;;;;;;;8.99;95.47;100780.69;5015425;28;20029;-69
2021/10/22 04:48:12;;;;;;;29.92;26.23;;;;;;;9.06;96.04;100801.66;5015196;28;20400;-66
2021/10/22 04:50:49;;;;;;;32.28;27.70;;;;;;;9.11;96.08;100800.97;5012240;28;20057;-65
2021/10/22 04:53:15;;;;;;;37.08;29.92;;;;;;;9.10;95.11;100804.38;5015407;28;20127;-66
2021/10/22 04:55:41;;;;;;;35.55;31.63;;;;;;;8.99;94.58;100778.97;5015541;28;20109;-66
2021/10/22 04:58:08;;;;;;;36.00;32.13;;;;;;;9.12;94.81;100815.63;5030400;28;20030;-66
2021/10/22 05:00:33;;;;;;;35.95;32.05;;;;;;;9.03;95.74;100803.19;5015369;28;20030;-65
2021/10/22 05:02:59;;;;;;;35.40;29.20;;;;;;;9.14;96.16;100814.03;5015298;28;20087;-65
2021/10/22 05:05:24;;;;;;;34.25;28.25;;;;;;;9.10;96.35;100813.00;5013926;28;20392;-66
2021/10/22 05:07:50;;;;;;;38.33;29.00;;;;;;;9.11;96.39;100811.28;5014994;28;20412;-66
2021/10/22 05:10:15;;;;;;;36.65;28.40;;;;;;;9.07;96.13;100799.94;5030373;28;20030;-66
2021/10/22 05:12:41;;;;;;;35.47;27.67;;;;;;;9.30;96.42;100823.38;5014849;28;20026;-66
2021/10/22 05:15:08;;;;;;;34.67;28.65;;;;;;;9.37;96.39;100817.69;5014650;28;20062;-65
2021/10/22 05:17:34;;;;;;;32.97;28.85;;;;;;;9.10;96.40;100768.31;5015142;28;20392;-66
2021/10/22 05:20:00;;;;;;;35.95;29.25;;;;;;;9.46;96.43;100818.13;5014713;28;20030;-66
2021/10/22 05:22:26;;;;;;;37.05;29.15;;;;;;;9.49;96.77;100812.25;5015153;28;20072;-64
2021/10/22 05:24:52;;;;;;;35.47;30.75;;;;;;;9.31;97.54;100782.22;5014835;28;20034;-66
2021/10/22 05:27:18;;;;;;;38.38;30.88;;;;;;;9.29;97.77;100767.50;5014531;28;20065;-66
2021/10/22 05:29:44;;;;;;;41.08;30.70;;;;;;;9.56;98.21;100816.88;5014609;28;20030;-65
2021/10/22 05:32:09;;;;;;;35.95;29.48;;;;;;;9.50;98.52;100803.69;5014722;28;20033;-66
2021/10/22 05:34:35;;;;;;;36.35;29.73;;;;;;;9.67;98.67;100827.66;5014974;28;20083;-65
2021/10/22 05:37:00;;;;;;;33.53;28.25;;;;;;;9.66;98.84;100834.53;5014561;28;20036;-66
2021/10/22 05:39:26;;;;;;;35.58;29.85;;;;;;;9.65;98.58;100825.03;5014849;28;20030;-66
2021/10/22 05:41:51;;;;;;;36.70;30.75;;;;;;;9.59;98.57;100831.59;5014552;28;20084;-66
2021/10/22 05:44:19;;;;;;;35.70;29.30;;;;;;;9.59;99.36;100837.63;5014267;28;20492;-65
2021/10/22 05:46:46;;;;;;;37.63;29.80;;;;;;;8.94;100.00;100779.59;5014327;28;20037;-67
2021/10/22 05:49:11;;;;;;;34.38;29.42;;;;;;;8.66;100.00;100767.91;5014386;28;20172;-67
2021/10/22 05:51:38;;;;;;;40.17;30.98;;;;;;;8.89;100.00;100860.03;5014277;28;20108;-67
2021/10/22 05:54:03;;;;;;;37.28;32.17;;;;;;;8.65;100.00;100859.72;5014292;28;20041;-65
2021/10/22 05:56:29;;;;;;;41.05;32.28;;;;;;;8.56;100.00;100849.81;5014491;28;20037;-68
2021/10/22 05:58:55;;;;;;;36.78;31.67;;;;;;;8.36;100.00;100791.28;5014259;28;20038;-67
2021/10/22 06:01:22;;;;;;;41.20;32.90;;;;;;;9.02;100.00;100858.09;5013798;28;20033;-67
2021/10/22 06:03:47;;;;;;;39.10;31.80;;;;;;;9.08;100.00;100845.50;5014190;28;20048;-65
2021/10/22 06:06:12;;;;;;;37.72;30.92;;;;;;;9.35;100.00;100855.41;5013975;28;20030;-69
2021/10/22 06:08:39;;;;;;;40.67;33.05;;;;;;;9.56;100.00;100876.16;5013897;28;20109;-69
2021/10/22 06:11:10;;;;;;;36.20;32.20;;;;;;;9.62;100.00;100862.66;5014165;28;20048;-66
2021/10/22 06:13:36;;;;;;;35.10;29.55;;;;;;;9.76;100.00;100876.19;5014072;28;20041;-70
2021/10/22 06:16:02;;;;;;;36.88;29.77;;;;;;;9.35;100.00;100881.16;5013386;28;20054;-66
2021/10/22 06:18:28;;;;;;;39.17;30.45;;;;;;;9.53;100.00;100874.31;5013824;28;20423;-67
2021/10/22 06:20:57;;;;;;;36.50;30.15;;;;;;;9.48;100.00;100896.41;5028980;28;20399;-66
2021/10/22 06:26:07;;;;;;;36.00;28.67;;;;;;;9.79;100.00;100902.13;5013542;28;19979;-67
2021/10/22 06:28:32;;;;;;;35.60;28.75;;;;;;;10.10;100.00;100893.25;5013511;28;20473;-64
2021/10/22 06:30:58;;;;;;;35.88;29.38;;;;;;;10.20;100.00;100875.69;5013494;28;20026;-66
2021/10/22 06:33:23;;;;;;;34.75;28.30;;;;;;;10.62;100.00;100895.59;5012226;28;20022;-66
2021/10/22 06:35:50;;;;;;;31.88;28.13;;;;;;;10.84;100.00;100894.81;5013401;28;20101;-64
2021/10/22 06:38:15;;;;;;;33.50;29.90;;;;;;;10.97;100.00;100895.34;5013011;28;20026;-66
2021/10/22 06:40:41;;;;;;;33.92;27.85;;;;;;;11.12;100.00;100900.28;5013479;28;20080;-67
2021/10/22 06:43:07;;;;;;;31.52;27.25;;;;;;;11.16;100.00;100884.06;5013349;28;20483;-64
2021/10/22 06:45:32;;;;;;;30.45;27.15;;;;;;;11.27;100.00;100897.44;5013210;28;20025;-64
2021/10/22 06:47:58;;;;;;;31.73;26.55;;;;;;;11.37;100.00;100880.59;5013135;28;20044;-66
2021/10/22 06:50:23;;;;;;;34.83;28.85;;;;;;;11.51;100.00;100892.38;5013236;28;20157;-64
2021/10/22 06:52:49;;;;;;;36.15;29.42;;;;;;;11.44;100.00;100880.00;5012861;28;20026;-66
2021/10/22 06:55:15;;;;;;;33.72;28.25;;;;;;;11.69;100.00;100899.09;5012866;28;20423;-66
2021/10/22 06:57:41;;;;;;;33.90;29.17;;;;;;;11.72;100.00;100909.56;5013033;28;20065;-65
2021/10/22 07:00:10;;;;;;;36.42;30.95;;;;;;;11.82;100.00;100906.50;5012815;28;20053;-65
2021/10/22 07:02:53;;;;;;;39.90;33.33;;;;;;;11.93;100.00;100910.38;5012685;28;20026;-66
2021/10/22 07:07:59;;;;;;;32.90;29.30;;;;;;;12.05;99.82;100929.81;5012876;28;20030;-65
2021/10/22 07:10:25;;;;;;;30.05;26.83;;;;;;;12.13;100.00;100906.00;5012807;28;20128;-66
2021/10/22 07:12:51;;;;;;;29.08;23.80;;;;;;;12.30;99.55;100909.22;5012762;28;20116;-65
2021/10/22 07:15:17;;;;;;;32.45;26.15;;;;;;;12.39;100.00;100903.50;5012735;28;20045;-65
2021/10/22 07:17:45;;;;;;;30.48;26.30;;;;;;;12.09;99.64;100817.84;5012743;28;20488;-66
2021/10/22 07:20:12;;;;;;;30.67;25.80;;;;;;;12.82;98.71;100895.50;5012615;28;20034;-67
2021/10/22 07:23:05;;;;;;;27.67;23.48;;;;;;;12.94;97.80;100901.09;5012495;28;20025;-66
2021/10/22 07:25:32;;;;;;;28.35;24.70;;;;;;;13.07;96.91;100898.09;5012575;28;20026;-67
2021/10/22 07:27:59;;;;;;;26.45;22.58;;;;;;;12.60;98.20;100819.66;5012445;28;20030;-70
2021/10/22 07:30:25;;;;;;;25.02;22.33;;;;;;;13.22;97.27;100897.72;5012491;28;20034;-67
2021/10/22 07:32:50;;;;;;;24.10;21.50;;;;;;;13.25;97.20;100889.19;5026643;28;20048;-66
2021/10/22 07:35:16;;;;;;;25.83;21.75;;;;;;;13.28;97.44;100902.22;5026969;28;20042;-66
2021/10/22 07:37:43;;;;;;;23.27;20.73;;;;;;;13.36;96.74;100900.78;5012394;28;20049;-66
2021/10/22 07:40:09;;;;;;;23.85;21.35;;;;;;;13.47;96.29;100903.75;5012517;28;20029;-67
2021/10/22 07:42:36;;;;;;;29.65;26.48;;;;;;;13.54;95.21;100910.00;5012531;28;20026;-66
2021/10/22 07:45:05;;;;;;;26.45;22.05;;;;;;;13.55;95.30;100915.25;5012380;28;20026;-66
2021/10/22 07:47:33;;;;;;;23.63;20.98;;;;;;;13.58;94.82;100899.78;5010871;28;20407;-67
2021/10/22 07:49:58;;;;;;;24.17;21.75;;;;;;;13.40;93.63;100850.78;5011346;28;20480;-66
2021/10/22 07:52:27;;;;;;;27.35;22.48;;;;;;;13.85;93.35;100906.66;5025071;28;20112;-67
2021/10/22 07:54:53;;;;;;;25.20;20.60;;;;;;;13.91;93.06;100896.44;5032065;28;20479;-67
2021/10/22 07:57:19;;;;;;;26.88;24.08;;;;;;;13.88;93.52;100916.25;5031848;28;20082;-68
2021/10/22 07:59:46;;;;;;;27.20;23.38;;;;;;;14.07;92.97;100908.19;5031968;28;20029;-67
2021/10/22 08:02:15;;;;;;;23.95;21.33;;;;;;;14.17;92.88;100888.56;5031607;28;20032;-68
2021/10/22 08:04:44;;;;;;;25.38;22.65;;;;;;;14.09;92.69;100895.22;5031736;28;20164;-68
2021/10/22 08:07:10;;;;;;;26.95;23.60;;;;;;;14.27;91.50;100888.81;5031502;28;20025;-67
2021/10/22 08:09:36;;;;;;;24.52;21.88;;;;;;;14.42;90.99;100891.88;5031760;28;20403;-67
2021/10/22 08:12:02;;;;;;;25.95;23.17;;;;;;;14.46;90.42;100885.03;5031799;28;20029;-67
2021/10/22 08:14:27;;;;;;;27.40;22.92;;;;;;;14.54;90.33;100893.91;5031770;28;20057;-67
2021/10/22 08:16:52;;;;;;;24.45;21.80;;;;;;;14.72;89.72;100883.19;5045925;28;20033;-67
2021/10/22 08:19:18;;;;;;;23.05;20.00;;;;;;;14.79;89.39;100887.69;5031245;28;20032;-66
2021/10/22 08:24:10;;;;;;;25.05;22.35;;;;;;;14.97;89.28;100895.09;5031692;28;20030;-70
2021/10/22 08:26:36;;;;;;;30.05;22.77;;;;;;;14.83;86.35;100826.28;5031544;28;20056;-66
2021/10/22 08:29:02;;;;;;;24.80;21.83;;;;;;;15.26;86.35;100894.94;5031511;28;20427;-64
2021/10/22 08:31:28;;;;;;;30.38;23.92;;;;;;;15.36;86.30;100881.34;5031337;28;20449;-65
2021/10/22 08:33:54;;;;;;;25.98;22.92;;;;;;;15.53;86.29;100892.13;5045832;28;20041;-67
2021/10/22 08:36:19;;;;;;;24.23;20.75;;;;;;;15.73;83.98;100888.22;5031618;28;20037;-67
2021/10/22 08:38:45;;;;;;;24.38;21.80;;;;;;;15.45;83.33;100827.72;5029187;28;20409;-65
2021/10/22 08:41:15;;;;;;;24.05;21.55;;;;;;;15.89;83.49;100882.53;5031540;28;20031;-66
2021/10/22 08:43:41;;;;;;;23.58;21.17;;;;;;;16.01;85.62;100894.94;5031493;28;20047;-67
2021/10/22 08:46:12;;;;;;;23.60;21.05;;;;;;;15.77;83.39;100869.22;5031347;28;20024;-67
2021/10/22 08:48:38;;;;;;;22.23;19.80;;;;;;;15.62;82.38;100815.97;5031360;28;20021;-66
2021/10/22 08:51:04;;;;;;;22.95;20.52;;;;;;;16.19;81.15;100873.63;5031318;28;20022;-65
2021/10/22 08:53:30;;;;;;;23.58;21.13;;;;;;;16.30;80.94;100869.50;5031298;28;20171;-67
2021/10/22 08:55:57;;;;;;;21.27;18.75;;;;;;;16.29;81.09;100867.75;5029019;28;20543;-67
2021/10/22 08:58:23;;;;;;;24.77;19.75;;;;;;;16.36;80.07;100870.47;5031347;28;20084;-66
2021/10/22 09:00:49;;;;;;;23.80;20.10;;;;;;;16.41;81.35;100868.81;5031286;28;20034;-66
2021/10/22 09:03:20;;;;;;;24.25;20.33;;;;;;;16.14;79.32;100781.50;5033593;28;20033;-66
2021/10/22 09:06:13;;;;;;;42.92;34.90;;;;;;;16.43;77.70;100810.66;5033566;28;20404;-65
2021/10/22 09:08:44;;;;;;;21.48;18.05;;;;;;;16.82;77.96;100871.31;5048414;28;20037;-66
2021/10/22 09:11:24;;;;;;;22.63;20.10;;;;;;;17.02;77.94;100860.41;5034530;28;20026;-67
2021/10/22 09:14:07;;;;;;;;;;;;;;;17.08;77.41;100860.50;5035171;28;20068;-67
2021/10/22 09:16:53;;;;;;;22.95;18.48;;;;;;;17.17;75.78;100851.94;5032209;28;20429;-66
2021/10/22 09:19:41;;;;;;;20.70;18.45;;;;;;;17.52;73.86;100856.81;5033367;28;20494;-65
2021/10/22 09:22:30;;;;;;;22.88;18.88;;;;;;;17.10;73.73;100775.31;5032164;28;20037;-67
2021/10/22 09:25:02;;;;;;;20.67;18.42;;;;;;;17.60;73.57;100866.50;5032255;28;20528;-66
2021/10/22 09:27:44;;;;;;;25.55;21.88;;;;;;;17.72;74.25;100854.47;5032052;28;20026;-68
2021/10/22 09:30:29;;;;;;;24.02;19.23;;;;;;;17.81;73.85;100856.34;5031996;28;20037;-67
2021/10/22 09:33:01;;;;;;;20.70;17.33;;;;;;;17.94;72.37;100848.75;5032090;28;20029;-65
2021/10/22 09:35:47;;;;;;;20.85;17.85;;;;;;;18.00;72.40;100858.38;5032015;28;20044;-67
2021/10/22 09:38:19;;;;;;;22.10;17.77;;;;;;;18.17;70.63;100850.75;5031690;28;20025;-67
2021/10/22 09:40:52;;;;;;;20.35;18.15;;;;;;;18.35;71.53;100846.59;5032164;28;20427;-68
2021/10/22 09:43:48;;;;;;;18.55;16.30;;;;;;;18.41;69.99;100849.28;5031770;28;20025;-67
2021/10/22 09:46:15;;;;;;;18.58;16.58;;;;;;;18.69;67.20;100845.22;5031645;28;20053;-67
2021/10/22 09:48:43;;;;;;;20.23;17.60;;;;;;;18.82;68.50;100846.19;5031501;28;20048;-67
2021/10/22 09:51:23;;;;;;;19.30;17.15;;;;;;;19.00;67.77;100849.84;5031663;28;20063;-67
2021/10/22 09:53:50;;;;;;;21.33;15.70;;;;;;;18.70;67.81;100804.22;5031504;28;20034;-67
2021/10/22 09:56:22;;;;;;;19.95;16.42;;;;;;;18.85;66.76;100838.34;5031500;28;20041;-66
2021/10/22 09:59:02;;;;;;;19.77;15.85;;;;;;;18.99;67.18;100840.25;5031494;28;20029;-67
2021/10/22 10:01:39;;;;;;;17.05;15.00;;;;;;;18.80;68.08;100836.56;5014676;28;20038;-67
2021/10/22 10:04:06;;;;;;;17.95;14.90;;;;;;;18.84;67.61;100830.50;5031317;28;20034;-67
2021/10/22 10:06:34;;;;;;;20.15;15.70;;;;;;;19.04;67.32;100815.88;5014568;28;20111;-65
2021/10/22 10:09:02;;;;;;;16.90;14.82;;;;;;;18.84;66.98;100828.78;5031244;28;20044;-65
2021/10/22 10:11:29;;;;;;;16.75;13.93;;;;;;;19.03;66.68;100826.34;5031175;28;20045;-65
2021/10/22 10:13:56;;;;;;;17.30;14.80;;;;;;;18.85;66.76;100749.41;5030218;28;20029;-68
2021/10/22 10:16:23;;;;;;;16.58;13.95;;;;;;;18.90;66.89;100729.44;5031259;28;20057;-69
2021/10/22 10:18:54;;;;;;;18.85;14.55;;;;;;;19.46;65.04;100803.06;5033692;28;20025;-67
2021/10/22 10:21:22;;;;;;;17.40;14.00;;;;;;;19.65;65.55;100811.91;5033651;28;20525;-67
2021/10/22 10:23:50;;;;;;;17.58;14.25;;;;;;;19.87;65.47;100793.69;5031106;28;20481;-66
2021/10/22 10:26:29;;;;;;;15.02;13.25;;;;;;;19.53;63.02;100718.44;5033683;28;20395;-67
2021/10/22 10:28:57;;;;;;;15.68;14.00;;;;;;;20.01;63.58;100802.47;5033297;28;20553;-67
2021/10/22 10:31:33;;;;;;;14.52;13.05;;;;;;;19.78;63.62;100794.50;5033359;28;20026;-67
2021/10/22 10:34:00;;;;;;;15.93;13.95;;;;;;;19.94;64.45;100789.34;5032322;28;20060;-67
2021/10/22 10:36:49;;;;;;;15.10;13.45;;;;;;;20.20;63.23;100792.06;5013677;28;20069;-66
2021/10/22 10:39:44;;;;;;;15.07;13.57;;;;;;;20.19;62.47;100785.91;5013415;28;20403;-67
2021/10/22 10:42:16;;;;;;;15.40;13.23;;;;;;;19.74;63.04;100742.97;5013396;28;20026;-67
2021/10/22 10:44:43;;;;;;;13.57;12.15;;;;;;;19.84;60.37;100721.19;5013224;28;20061;-67
2021/10/22 10:47:26;;;;;;;26.38;22.17;;;;;;;20.41;62.52;100788.59;5013283;28;20061;-65
2021/10/22 10:49:52;;;;;;;15.30;12.23;;;;;;;20.56;61.22;100782.50;5013158;28;20479;-67
2021/10/22 10:52:42;;;;;;;17.63;12.55;;;;;;;20.58;61.56;100778.09;5013250;28;20110;-67
2021/10/22 10:55:24;;;;;;;14.30;12.82;;;;;;;20.71;60.34;100767.63;5012698;28;20504;-67
2021/10/22 10:57:56;;;;;;;15.15;12.95;;;;;;;20.82;62.02;100758.91;5013009;28;20022;-67
2021/10/22 11:00:24;;;;;;;18.77;13.38;;;;;;;20.92;62.49;100740.53;5012827;28;20550;-67
2021/10/22 11:03:05;;;;;;;15.57;13.10;;;;;;;21.07;59.60;100727.38;5012718;28;20488;-67
2021/10/22 11:05:49;;;;;;;14.43;12.02;;;;;;;21.12;60.13;100749.25;5013264;28;20080;-66
2021/10/22 11:08:30;;;;;;;13.95;10.00;;;;;;;21.04;56.91;100726.50;5012923;28;20037;-67
2021/10/22 11:11:20;;;;;;;17.92;15.90;;;;;;;21.10;56.28;100740.50;5012906;28;20136;-65
2021/10/22 11:13:46;;;;;;;10.23;7.95;;;;;;;20.98;52.95;100745.75;5013006;28;20026;-67
2021/10/22 11:16:20;;;;;;;9.32;7.00;;;;;;;21.23;50.76;100745.72;5011805;28;20161;-67
2021/10/22 11:19:11;;;;;;;9.90;6.88;;;;;;;21.31;51.38;100734.31;5010748;28;20026;-66
2021/10/22 11:21:46;;;;;;;11.50;7.70;;;;;;;20.92;51.78;100730.03;5012061;28;20033;-67
2021/10/22 11:24:35;;;;;;;10.82;7.10;;;;;;;21.31;51.08;100734.31;5011648;28;20061;-67
2021/10/22 11:27:08;;;;;;;9.77;7.60;;;;;;;21.44;50.92;100723.75;5042648;28;20050;-69